Time;durP1;ratioP1;P1;durP2;ratioP2;P2;SDS_P1;SDS_P2;PMS_P1;PMS_P2;Temp;Humidity;BMP_temperature;BMP_pressure;BME280_temperature;BME280_humidity;BME280_pressure;Samples;Min_cycle;Max_cycle;Signal;HPM_P1;HPM_P2
2023/01/10 00:00:21;;;;;;;33.22;15.10;;;;;;;3.45;77.64;93151.44;5025577;28;20058;-86
2023/01/10 00:02:46;;;;;;;36.55;14.98;;;;;;;3.52;77.74;93122.84;5025358;28;20032;-86
2023/01/10 00:05:11;;;;;;;29.25;14.88;;;;;;;3.54;77.17;93136.53;5025307;28;20022;-86
2023/01/10 00:07:37;;;;;;;32.15;14.77;;;;;;;3.54;76.76;93139.16;5024209;28;20028;-86
2023/01/10 00:10:03;;;;;;;31.23;14.27;;;;;;;3.51;77.06;93156.34;5025364;28;20025;-86
2023/01/10 00:15:12;;;;;;;34.38;13.80;;;;;;;3.36;77.20;93154.69;5025369;28;20220;-86
2023/01/10 00:17:38;;;;;;;32.15;14.18;;;;;;;3.27;77.37;93114.25;5025192;28;20022;-86
2023/01/10 00:20:03;;;;;;;34.40;15.73;;;;;;;3.29;77.51;93133.19;5023792;28;20144;-85
2023/01/10 00:22:29;;;;;;;32.40;14.77;;;;;;;3.15;77.69;93143.66;5023912;28;20290;-86
2023/01/10 00:24:54;;;;;;;34.00;14.57;;;;;;;3.17;78.19;93140.72;5025178;28;20029;-81
2023/01/10 00:27:21;;;;;;;35.83;15.05;;;;;;;3.19;78.00;93152.53;5025180;28;20255;-83
2023/01/10 00:29:48;;;;;;;34.47;14.30;;;;;;;3.24;78.29;93148.28;5023689;28;20018;-82
2023/01/10 00:32:13;;;;;;;32.85;15.13;;;;;;;3.31;78.47;93141.59;5023653;28;20030;-82
2023/01/10 00:34:39;;;;;;;41.00;15.27;;;;;;;3.37;77.89;93124.66;5024659;28;20022;-82
2023/01/10 00:37:04;;;;;;;25.80;12.98;;;;;;;3.40;77.95;93112.78;5024610;28;20088;-82
2023/01/10 00:39:30;;;;;;;33.55;15.10;;;;;;;3.40;77.35;93107.50;5023279;28;20072;-83
2023/01/10 00:44:39;;;;;;;40.40;15.38;;;;;;;3.38;77.49;93113.06;5024902;28;20100;-83
2023/01/10 00:47:05;;;;;;;33.55;15.65;;;;;;;3.36;77.91;93111.78;5024639;28;20021;-83
2023/01/10 00:49:30;;;;;;;32.03;14.10;;;;;;;3.33;78.08;93086.78;5024625;28;20089;-82
2023/01/10 00:51:58;;;;;;;34.08;14.30;;;;;;;3.41;77.84;93116.97;5024695;28;20125;-81
2023/01/10 00:54:24;;;;;;;33.35;14.70;;;;;;;3.41;77.57;93101.94;5024856;28;20316;-82
2023/01/10 00:56:49;;;;;;;31.42;13.40;;;;;;;3.52;77.27;93110.47;5024452;28;20033;-82
2023/01/10 00:59:15;;;;;;;31.55;14.60;;;;;;;3.51;76.70;93082.56;5024044;28;20022;-82
2023/01/10 01:01:40;;;;;;;28.45;13.25;;;;;;;3.48;76.42;93082.34;5024316;28;20135;-87
2023/01/10 01:04:06;;;;;;;32.75;13.70;;;;;;;3.49;76.49;93078.66;5024533;28;20022;-87
2023/01/10 01:06:32;;;;;;;27.50;13.50;;;;;;;3.28;76.79;93096.59;5024441;28;20022;-87
2023/01/10 01:08:57;;;;;;;31.08;13.20;;;;;;;3.33;76.92;93104.44;5024501;28;20373;-86
2023/01/10 01:11:22;;;;;;;25.42;12.70;;;;;;;3.29;76.68;93117.38;5024549;28;20036;-87
2023/01/10 01:13:48;;;;;;;30.85;13.82;;;;;;;3.10;77.29;93111.34;5024516;28;20069;-87
2023/01/10 01:16:13;;;;;;;28.30;12.30;;;;;;;3.08;77.71;93101.09;5024525;28;20065;-87
2023/01/10 01:18:39;;;;;;;27.80;13.48;;;;;;;3.05;77.85;93091.13;5024201;28;20026;-87
2023/01/10 01:21:04;;;;;;;33.45;13.55;;;;;;;3.04;77.71;93091.44;5024162;28;20271;-85
2023/01/10 01:23:33;;;;;;;32.30;13.27;;;;;;;2.92;78.31;93087.34;5024009;28;20028;-85
2023/01/10 01:25:58;;;;;;;35.08;14.32;;;;;;;2.89;79.02;93051.09;5024266;28;20021;-85
2023/01/10 01:28:24;;;;;;;31.42;15.60;;;;;;;2.92;79.10;93087.34;5023911;28;20319;-85
2023/01/10 01:30:49;;;;;;;32.25;15.18;;;;;;;2.96;78.72;93113.91;5024046;28;20033;-83
2023/01/10 01:33:16;;;;;;;30.65;14.35;;;;;;;2.88;78.67;93130.31;5023923;28;20049;-84
2023/01/10 01:35:43;;;;;;;31.45;14.57;;;;;;;2.79;79.31;93065.16;5023747;28;20054;-83
2023/01/10 01:38:08;;;;;;;29.20;13.70;;;;;;;2.87;79.37;93078.72;5022557;28;20022;-84
2023/01/10 01:40:35;;;;;;;35.95;14.63;;;;;;;2.94;79.56;93079.97;5023618;28;20028;-84
2023/01/10 01:43:00;;;;;;;31.35;14.18;;;;;;;3.01;78.69;93100.66;5023657;28;20037;-84
2023/01/10 01:45:32;;;;;;;30.10;14.18;;;;;;;3.06;78.61;93082.16;5022224;28;20063;-84
2023/01/10 01:48:13;;;;;;;29.02;12.77;;;;;;;3.09;78.59;93072.91;5022466;28;20037;-84
2023/01/10 01:50:47;;;;;;;35.45;14.02;;;;;;;3.13;78.34;93068.63;5023713;28;20044;-84
2023/01/10 01:53:30;;;;;;;39.50;14.88;;;;;;;3.14;77.80;93083.38;5021435;28;20021;-84
2023/01/10 01:56:02;;;;;;;35.58;15.20;;;;;;;3.05;78.12;93079.81;5022328;28;20025;-85
2023/01/10 01:58:41;;;;;;;29.00;13.05;;;;;;;3.08;78.12;93066.09;5023631;28;20255;-84
2023/01/10 02:01:07;;;;;;;29.15;14.25;;;;;;;3.05;77.83;93077.97;5023670;28;20021;-85
2023/01/10 02:03:32;;;;;;;27.75;14.32;;;;;;;2.96;78.28;93051.50;5022850;28;20197;-85
2023/01/10 02:05:58;;;;;;;33.15;14.27;;;;;;;2.88;78.96;93062.66;5024027;28;20033;-85
2023/01/10 02:08:24;;;;;;;32.95;14.45;;;;;;;2.87;78.74;93037.44;5023999;28;20053;-85
2023/01/10 02:11:05;;;;;;;31.67;13.95;;;;;;;2.92;79.03;93024.19;5023845;28;20087;-85
2023/01/10 02:13:33;;;;;;;37.97;15.02;;;;;;;2.91;78.83;93011.28;5023709;28;20101;-85
2023/01/10 02:16:00;;;;;;;30.67;13.23;;;;;;;2.97;78.89;93010.97;5024484;28;20029;-88
2023/01/10 02:18:25;;;;;;;38.83;15.85;;;;;;;2.89;78.48;93011.59;5022979;28;20029;-88
2023/01/10 02:20:51;;;;;;;40.72;17.42;;;;;;;2.89;78.54;93051.09;5023480;28;20026;-87
2023/01/10 02:23:30;;;;;;;39.13;16.65;;;;;;;2.66;79.19;93031.63;5022271;28;20041;-87
2023/01/10 02:26:34;;;;;;;37.47;17.25;;;;;;;2.60;79.80;93036.19;5023368;28;20022;-88
2023/01/10 02:29:23;;;;;;;30.00;14.63;;;;;;;2.47;80.75;93017.69;5022650;28;20038;-87
2023/01/10 02:31:58;;;;;;;35.88;15.32;;;;;;;2.58;80.80;93025.16;4983213;28;20041;-86
2023/01/10 02:34:33;;;;;;;34.10;15.07;;;;;;;2.69;80.82;93031.09;5023356;28;20271;-87
2023/01/10 02:37:15;;;;;;;33.78;14.57;;;;;;;2.72;80.44;93021.84;5021711;28;20054;-86
2023/01/10 02:40:08;;;;;;;30.30;14.73;;;;;;;2.79;80.32;93020.41;5023074;28;20097;-86
2023/01/10 02:42:57;;;;;;;30.38;13.55;;;;;;;2.74;79.70;93024.97;5023099;28;20050;-85
2023/01/10 02:45:45;;;;;;;29.63;13.93;;;;;;;2.64;79.98;93028.50;5023130;28;20216;-86
2023/01/10 02:48:10;;;;;;;32.05;14.30;;;;;;;2.61;80.24;93029.88;5021968;28;20022;-85
2023/01/10 02:50:42;;;;;;;32.65;14.23;;;;;;;2.61;80.21;93013.31;5023240;28;20197;-87
2023/01/10 02:53:13;;;;;;;30.83;13.32;;;;;;;2.63;80.10;93011.16;5023120;28;20327;-87
2023/01/10 02:56:07;;;;;;;34.33;14.87;;;;;;;2.65;80.40;93022.19;5023343;28;20410;-85
2023/01/10 02:58:52;;;;;;;30.25;13.27;;;;;;;2.72;79.95;93027.88;5022749;28;20036;-84
2023/01/10 03:01:39;;;;;;;28.67;13.38;;;;;;;2.72;79.68;93035.00;5022883;28;20029;-83
2023/01/10 03:04:47;;;;;;;29.83;13.05;;;;;;;2.73;79.83;93032.09;5023042;28;20080;-82
2023/01/10 03:07:32;;;;;;;33.22;14.48;;;;;;;2.75;79.30;93031.81;5026556;28;20029;-83
2023/01/10 03:10:16;;;;;;;33.83;15.20;;;;;;;2.71;79.39;93049.22;5026727;28;20331;-82
2023/01/10 03:12:49;;;;;;;28.27;14.45;;;;;;;2.65;79.71;93050.38;5026591;28;20072;-84
2023/01/10 03:15:18;;;;;;;26.35;12.60;;;;;;;2.66;79.66;93049.28;5026490;28;20419;-85
2023/01/10 03:17:49;;;;;;;31.80;14.18;;;;;;;2.51;80.40;93048.41;5025169;28;20041;-84
2023/01/10 03:20:19;;;;;;;32.33;14.88;;;;;;;2.51;80.81;93045.00;5026334;28;20763;-85
2023/01/10 03:22:46;;;;;;;28.65;13.63;;;;;;;2.53;80.72;93034.97;5025258;28;20038;-85
2023/01/10 03:25:15;;;;;;;28.08;12.75;;;;;;;2.55;81.04;93054.66;5026329;28;20048;-85
2023/01/10 03:27:50;;;;;;;31.02;14.25;;;;;;;2.55;80.94;93057.31;5026132;28;20232;-85
2023/01/10 03:30:35;;;;;;;34.50;15.65;;;;;;;2.55;80.94;93041.53;5026214;28;20022;-85
2023/01/10 03:33:02;;;;;;;59.20;22.05;;;;;;;2.51;81.10;93053.66;5026136;28;20057;-85
2023/01/10 03:35:42;;;;;;;32.70;15.23;;;;;;;2.55;81.27;93056.53;5026015;28;20049;-85
2023/01/10 03:38:45;;;;;;;31.67;14.57;;;;;;;2.54;81.48;93055.72;5024902;28;20025;-86
2023/01/10 03:41:40;;;;;;;35.20;14.82;;;;;;;2.58;81.21;93056.72;5025812;28;20037;-86
2023/01/10 03:44:44;;;;;;;40.20;16.58;;;;;;;2.54;81.51;93058.34;4992135;28;20040;-85
2023/01/10 03:47:34;;;;;;;38.15;16.42;;;;;;;2.59;81.86;93032.00;5024705;28;20320;-85
2023/01/10 03:50:05;;;;;;;29.55;15.05;;;;;;;2.68;81.58;93032.13;5024522;28;20044;-85
2023/01/10 03:52:34;;;;;;;30.63;14.75;;;;;;;2.71;81.21;93039.47;5024537;28;20033;-85
2023/01/10 03:55:01;;;;;;;29.60;14.27;;;;;;;2.76;80.88;93026.22;5025673;28;20045;-85
2023/01/10 03:57:26;;;;;;;31.20;14.75;;;;;;;2.80;80.72;93029.09;5025679;28;20022;-85
2023/01/10 03:59:56;;;;;;;33.13;15.20;;;;;;;2.87;80.84;93021.63;5025706;28;20265;-86
2023/01/10 04:02:25;;;;;;;36.10;15.45;;;;;;;2.93;80.63;93002.06;5025671;28;20081;-87
2023/01/10 04:04:50;;;;;;;31.60;14.45;;;;;;;2.94;80.56;92977.28;5025864;28;20022;-87
2023/01/10 04:07:16;;;;;;;28.35;12.90;;;;;;;2.95;80.37;92975.44;5025983;28;20032;-88
2023/01/10 04:09:41;;;;;;;30.60;13.40;;;;;;;2.99;80.19;92958.00;5025782;28;20068;-87
2023/01/10 04:12:07;;;;;;;37.10;15.40;;;;;;;3.03;80.58;92956.34;5025827;28;20052;-86
2023/01/10 04:14:32;;;;;;;27.98;14.18;;;;;;;3.07;79.82;92967.88;5026406;28;20017;-86
2023/01/10 04:16:58;;;;;;;33.55;15.20;;;;;;;3.12;79.44;92967.03;5025687;28;20025;-87
2023/01/10 04:19:24;;;;;;;22.52;11.95;;;;;;;3.08;79.31;92971.31;5026016;28;20096;-87
2023/01/10 04:21:50;;;;;;;22.40;10.80;;;;;;;3.11;79.17;92983.88;5026295;28;20267;-87
2023/01/10 04:24:15;;;;;;;27.30;10.80;;;;;;;3.12;78.75;92975.72;5026293;28;20045;-87
2023/01/10 04:26:41;;;;;;;19.13;10.00;;;;;;;3.20;78.97;93011.91;5026131;28;20089;-87
2023/01/10 04:29:06;;;;;;;26.83;10.80;;;;;;;3.22;78.27;92996.59;5024162;28;20022;-87
2023/01/10 04:31:32;;;;;;;21.08;9.15;;;;;;;3.25;78.01;93005.78;5024004;28;20049;-84
2023/01/10 04:33:57;;;;;;;19.85;10.30;;;;;;;3.31;77.97;93009.91;5023844;28;20037;-84
2023/01/10 04:36:23;;;;;;;25.25;12.25;;;;;;;3.35;77.58;93031.19;5025312;28;20042;-87
2023/01/10 04:38:48;;;;;;;22.27;11.23;;;;;;;3.28;77.50;93047.34;5023918;28;20026;-87
2023/01/10 04:41:14;;;;;;;22.58;11.25;;;;;;;3.29;77.77;93043.63;5024874;28;20033;-87
2023/01/10 04:43:39;;;;;;;26.65;11.18;;;;;;;3.34;77.76;93037.53;5023693;28;20049;-86
2023/01/10 04:46:04;;;;;;;22.98;11.32;;;;;;;3.42;77.83;93036.88;5024864;28;20018;-86
2023/01/10 04:48:30;;;;;;;24.95;12.07;;;;;;;3.52;77.63;93006.91;5023760;28;20064;-86
2023/01/10 04:50:55;;;;;;;20.23;10.95;;;;;;;3.62;77.44;93014.66;5024776;28;20025;-86
2023/01/10 04:53:21;;;;;;;22.42;11.50;;;;;;;3.73;76.88;93031.88;5024811;28;20024;-86
2023/01/10 04:55:47;;;;;;;19.60;10.05;;;;;;;3.80;76.52;93032.25;5024889;28;20025;-86
2023/01/10 04:58:12;;;;;;;18.83;9.38;;;;;;;3.77;76.85;93016.25;5024760;28;20025;-86
2023/01/10 05:00:38;;;;;;;21.20;10.20;;;;;;;3.81;76.52;93022.53;5024613;28;20018;-86
2023/01/10 05:03:04;;;;;;;22.83;11.30;;;;;;;3.86;76.30;93016.38;5024433;28;20018;-84
2023/01/10 05:05:30;;;;;;;20.55;10.60;;;;;;;3.91;75.96;93010.97;5024593;28;20331;-84
2023/01/10 05:07:56;;;;;;;23.48;11.18;;;;;;;3.88;76.15;92985.22;5024417;28;20200;-83
2023/01/10 05:10:21;;;;;;;27.80;12.52;;;;;;;3.92;75.76;92986.97;5024693;28;20060;-83
2023/01/10 05:12:47;;;;;;;24.30;11.77;;;;;;;3.92;75.31;92997.53;5024279;28;20026;-83
2023/01/10 05:15:12;;;;;;;20.90;10.95;;;;;;;3.87;75.31;92983.66;5024156;28;20026;-83
2023/01/10 05:17:38;;;;;;;25.23;11.88;;;;;;;3.80;75.77;92971.63;5024199;28;20021;-83
2023/01/10 05:20:04;;;;;;;23.73;12.30;;;;;;;3.86;75.80;92977.59;5024261;28;20383;-86
2023/01/10 05:22:30;;;;;;;23.58;12.00;;;;;;;3.83;75.39;92967.66;5024368;28;20049;-87
2023/01/10 05:24:56;;;;;;;27.15;12.75;;;;;;;3.72;75.53;92961.00;5023873;28;20022;-86
2023/01/10 05:27:21;;;;;;;25.35;13.05;;;;;;;3.70;76.07;92969.19;5023844;28;20136;-87
2023/01/10 05:29:47;;;;;;;27.33;13.55;;;;;;;3.75;76.18;92979.66;5022731;28;20092;-87
2023/01/10 05:32:12;;;;;;;31.15;14.05;;;;;;;3.77;75.89;92982.78;5024106;28;20060;-87
2023/01/10 05:34:38;;;;;;;26.25;12.40;;;;;;;3.81;75.99;92985.63;5022700;28;20032;-88
2023/01/10 05:37:03;;;;;;;26.40;13.40;;;;;;;3.88;75.85;92998.41;5024047;28;20069;-89
2023/01/10 05:39:29;;;;;;;25.00;12.50;;;;;;;3.90;75.58;92991.75;5023126;28;20311;-89
2023/01/10 05:41:54;;;;;;;39.10;17.88;;;;;;;3.91;75.60;93019.69;5023153;28;20040;-90
2023/01/10 05:44:19;;;;;;;42.30;18.80;;;;;;;3.85;75.43;93018.22;5024433;28;20021;-89
2023/01/10 05:46:45;;;;;;;35.72;17.10;;;;;;;3.91;75.76;93010.97;5023105;28;20122;-90
2023/01/10 05:49:10;;;;;;;32.17;15.75;;;;;;;3.90;75.93;93007.56;5023231;28;20025;-90
2023/01/10 05:51:36;;;;;;;30.90;14.27;;;;;;;3.95;75.73;93015.41;5023000;28;20125;-88
2023/01/10 05:54:01;;;;;;;28.83;13.18;;;;;;;3.98;75.69;92998.22;5023562;28;20085;-88
2023/01/10 05:56:27;;;;;;;29.95;13.38;;;;;;;4.02;75.53;92999.19;5023502;28;20342;-88
2023/01/10 05:58:53;;;;;;;28.35;13.80;;;;;;;4.07;75.12;92999.09;5023536;28;20033;-86
2023/01/10 06:01:18;;;;;;;29.67;14.15;;;;;;;4.10;75.04;93009.06;5021869;28;20201;-86
2023/01/10 06:03:44;;;;;;;25.70;13.07;;;;;;;4.06;74.57;93008.06;5022187;28;20029;-84
2023/01/10 06:06:09;;;;;;;24.80;13.13;;;;;;;4.02;74.61;93009.75;5023145;28;20124;-84
2023/01/10 06:08:35;;;;;;;28.25;13.95;;;;;;;3.97;75.02;93013.25;5022229;28;20216;-87
2023/01/10 06:11:02;;;;;;;26.48;12.38;;;;;;;4.00;75.18;93009.25;5022007;28;20030;-86
2023/01/10 06:13:28;;;;;;;26.45;12.95;;;;;;;4.04;75.35;93004.94;5023124;28;20311;-87
2023/01/10 06:15:53;;;;;;;28.83;13.95;;;;;;;4.11;75.45;93012.47;5023001;28;20033;-87
2023/01/10 06:18:19;;;;;;;23.00;12.05;;;;;;;4.12;75.42;93001.63;5022997;28;20029;-87
2023/01/10 06:20:44;;;;;;;24.85;11.77;;;;;;;4.20;75.39;93006.22;5022864;28;20030;-87
2023/01/10 06:23:10;;;;;;;23.83;11.65;;;;;;;4.24;74.99;93010.91;5022119;28;20022;-86
2023/01/10 06:25:39;;;;;;;25.77;12.55;;;;;;;4.28;74.77;93015.31;5022944;28;20022;-87
2023/01/10 06:28:05;;;;;;;23.58;11.13;;;;;;;4.30;74.41;93005.25;5021985;28;20035;-84
2023/01/10 06:30:31;;;;;;;21.98;11.57;;;;;;;4.34;74.56;93000.16;5022663;28;20028;-84
2023/01/10 06:33:06;;;;;;;20.90;10.65;;;;;;;4.40;74.43;93002.41;5022680;28;20049;-85
2023/01/10 06:35:31;;;;;;;23.13;11.07;;;;;;;4.46;74.07;93008.38;5022264;28;20036;-86
2023/01/10 06:37:58;;;;;;;27.08;12.48;;;;;;;4.44;74.15;93013.16;5022703;28;20069;-85
2023/01/10 06:40:24;;;;;;;27.08;13.45;;;;;;;4.47;74.33;92996.72;5024724;28;20097;-86
2023/01/10 06:42:49;;;;;;;26.05;12.85;;;;;;;4.51;74.23;93000.31;5026858;28;20025;-85
2023/01/10 06:45:15;;;;;;;28.08;13.75;;;;;;;4.51;73.91;93012.75;5026651;28;20036;-85
2023/01/10 06:47:41;;;;;;;39.58;19.50;;;;;;;4.54;74.30;93014.78;5025438;28;20152;-85
2023/01/10 06:50:07;;;;;;;37.67;17.75;;;;;;;4.55;74.23;93006.56;5026624;28;20024;-85
2023/01/10 06:52:32;;;;;;;32.47;16.10;;;;;;;4.59;74.26;93010.19;5026308;28;20085;-83
2023/01/10 06:54:58;;;;;;;31.48;15.60;;;;;;;4.61;74.31;93015.19;5026647;28;20021;-84
2023/01/10 06:57:23;;;;;;;39.38;20.95;;;;;;;4.62;74.57;93004.34;5025993;28;20026;-84
2023/01/10 06:59:49;;;;;;;37.60;20.15;;;;;;;4.65;74.55;93000.31;5027123;28;20036;-85
2023/01/10 07:02:14;;;;;;;39.80;20.98;;;;;;;4.67;74.64;93003.44;5027871;28;20034;-83
2023/01/10 07:04:40;;;;;;;31.90;17.13;;;;;;;4.70;74.56;92989.66;5027714;28;20022;-86
2023/01/10 07:07:05;;;;;;;34.80;16.65;;;;;;;4.72;75.01;92992.78;5027892;28;20081;-90
2023/01/10 07:09:31;;;;;;;35.35;14.70;;;;;;;4.73;74.93;92983.78;5027457;28;20064;-86
2023/01/10 07:11:56;;;;;;;26.60;13.35;;;;;;;4.73;74.84;92980.34;5026125;28;20323;-88
2023/01/10 07:14:22;;;;;;;31.55;14.10;;;;;;;4.76;75.02;92985.03;5027719;28;20022;-87
2023/01/10 07:16:47;;;;;;;28.67;14.57;;;;;;;4.78;75.01;92980.22;5026799;28;20251;-88
2023/01/10 07:19:14;;;;;;;34.88;16.48;;;;;;;4.79;75.15;92977.28;5026422;28;20033;-88
2023/01/10 07:21:43;;;;;;;33.75;17.83;;;;;;;4.85;75.32;92975.34;5026524;28;20025;-88
2023/01/10 07:24:08;;;;;;;34.95;18.42;;;;;;;4.87;75.71;92983.75;5026271;28;20090;-89
2023/01/10 07:26:37;;;;;;;45.90;21.90;;;;;;;4.89;75.71;92981.56;5026768;28;20026;-89
2023/01/10 07:29:03;;;;;;;44.55;20.73;;;;;;;4.89;75.82;92975.53;5026556;28;20026;-89
2023/01/10 07:31:28;;;;;;;37.90;18.77;;;;;;;4.94;75.84;92970.13;5025236;28;20026;-87
2023/01/10 07:33:54;;;;;;;41.13;18.63;;;;;;;4.91;76.09;92955.66;5025922;28;20026;-80
2023/01/10 07:36:20;;;;;;;42.58;19.63;;;;;;;4.92;76.53;92959.84;5025501;28;20052;-71
2023/01/10 07:38:45;;;;;;;36.17;16.80;;;;;;;4.93;76.68;92958.78;5025153;28;20324;-71
2023/01/10 07:41:11;;;;;;;33.70;16.70;;;;;;;4.96;77.43;92949.47;5025903;28;20065;-91
2023/01/10 07:43:36;;;;;;;34.38;17.73;;;;;;;5.00;77.50;92953.84;5026385;28;20025;-85
2023/01/10 07:46:09;;;;;;;34.20;16.45;;;;;;;5.01;77.51;92952.00;5025786;28;20227;-86
2023/01/10 07:48:35;;;;;;;37.50;17.70;;;;;;;4.98;77.35;92945.44;5025497;28;20022;-86
2023/01/10 07:51:02;;;;;;;38.42;17.00;;;;;;;4.95;77.07;92948.69;5024612;28;20120;-86
2023/01/10 07:53:28;;;;;;;26.60;13.55;;;;;;;4.85;77.33;92950.78;5023852;28;20026;-87
2023/01/10 07:55:57;;;;;;;23.67;12.82;;;;;;;4.78;77.62;92951.19;5026175;28;20224;-86
2023/01/10 07:58:22;;;;;;;26.63;13.60;;;;;;;4.65;78.60;92966.00;5024898;28;20030;-86
2023/01/10 08:00:49;;;;;;;28.40;14.07;;;;;;;4.56;79.18;92960.66;5024773;28;20089;-87
2023/01/10 08:03:16;;;;;;;35.65;14.18;;;;;;;4.56;79.78;92957.22;5025920;28;20267;-86
2023/01/10 08:05:42;;;;;;;29.23;13.18;;;;;;;4.55;79.75;92955.66;5025864;28;20093;-87
2023/01/10 08:08:09;;;;;;;27.30;13.43;;;;;;;4.50;80.26;92963.66;5025446;28;20034;-87
2023/01/10 08:10:35;;;;;;;25.52;13.15;;;;;;;4.52;80.49;92964.97;5023723;28;20017;-86
2023/01/10 08:13:02;;;;;;;33.67;12.52;;;;;;;4.56;80.41;92958.00;5025360;28;20017;-86
2023/01/10 08:15:28;;;;;;;33.92;15.25;;;;;;;4.56;80.41;92962.47;5025351;28;20376;-86
2023/01/10 08:17:54;;;;;;;35.22;14.93;;;;;;;4.54;81.04;92952.25;5024276;28;20053;-87
2023/01/10 08:20:19;;;;;;;31.48;14.75;;;;;;;4.58;80.78;92949.78;5025245;28;20092;-81
2023/01/10 08:22:45;;;;;;;31.67;14.65;;;;;;;4.61;80.51;92947.31;5024734;28;20017;-80
2023/01/10 08:25:11;;;;;;;29.17;13.93;;;;;;;4.69;81.01;92950.34;5024702;28;20203;-76
2023/01/10 08:27:36;;;;;;;26.75;13.32;;;;;;;4.78;81.04;92933.50;5024739;28;20312;-75
2023/01/10 08:30:04;;;;;;;31.05;14.68;;;;;;;4.85;80.65;92922.53;5024609;28;20255;-75
2023/01/10 08:32:29;;;;;;;27.10;13.50;;;;;;;4.87;80.18;92923.00;5024372;28;20281;-74
2023/01/10 08:34:55;;;;;;;30.17;14.48;;;;;;;4.94;80.33;92928.63;5024412;28;20017;-75
2023/01/10 08:37:20;;;;;;;33.10;13.90;;;;;;;4.98;79.97;92921.66;5024187;28;20042;-76
2023/01/10 08:39:45;;;;;;;23.10;12.02;;;;;;;5.05;79.92;92915.19;5024399;28;20239;-75
2023/01/10 08:42:11;;;;;;;25.35;11.90;;;;;;;5.09;79.58;92916.94;5024484;28;20100;-76
2023/01/10 08:44:37;;;;;;;24.98;12.23;;;;;;;5.09;79.89;92919.59;5025063;28;20311;-76
2023/01/10 08:47:02;;;;;;;21.88;10.77;;;;;;;5.17;79.95;92918.06;5024495;28;20122;-75
2023/01/10 08:49:28;;;;;;;26.05;11.95;;;;;;;5.21;79.94;92911.88;5024758;28;20072;-77
2023/01/10 08:51:53;;;;;;;23.00;11.57;;;;;;;5.30;79.76;92911.94;5024369;28;20028;-75
2023/01/10 08:54:18;;;;;;;26.25;12.18;;;;;;;5.37;79.52;92906.22;5024243;28;20312;-75
2023/01/10 08:56:44;;;;;;;21.75;12.00;;;;;;;5.42;79.51;92909.50;5024381;28;20026;-76
2023/01/10 08:59:09;;;;;;;28.20;12.70;;;;;;;5.51;79.38;92914.06;5024068;28;20040;-75
2023/01/10 09:01:35;;;;;;;26.42;13.40;;;;;;;5.52;78.62;92908.47;5023941;28;20096;-75
2023/01/10 09:04:00;;;;;;;36.15;15.20;;;;;;;5.55;78.57;92909.72;5023342;28;20018;-74
2023/01/10 09:06:26;;;;;;;32.13;13.55;;;;;;;5.49;78.14;92897.72;5023940;28;20022;-75
2023/01/10 09:08:51;;;;;;;31.40;12.93;;;;;;;5.50;78.34;92892.13;5024088;28;20121;-76
2023/01/10 09:11:17;;;;;;;41.88;16.58;;;;;;;5.56;78.25;92898.06;5023996;28;20021;-76
2023/01/10 09:13:42;;;;;;;47.70;20.70;;;;;;;5.52;78.50;92892.59;5023842;28;20045;-76
2023/01/10 09:16:08;;;;;;;54.97;21.90;;;;;;;5.42;78.84;92908.72;5023649;28;20260;-75
2023/01/10 09:18:34;;;;;;;41.38;21.00;;;;;;;5.37;79.19;92900.91;5023723;28;20014;-75
2023/01/10 09:21:00;;;;;;;44.75;20.75;;;;;;;5.35;79.49;92903.88;5023612;28;20037;-77
2023/01/10 09:23:25;;;;;;;48.00;20.50;;;;;;;5.36;79.50;92894.88;5023684;28;20201;-74
2023/01/10 09:25:53;;;;;;;42.05;18.58;;;;;;;5.41;79.35;92891.31;5023679;28;20025;-75
2023/01/10 09:28:19;;;;;;;35.83;18.40;;;;;;;5.50;79.57;92896.66;5023588;28;20096;-75
2023/01/10 09:30:46;;;;;;;47.33;23.30;;;;;;;5.57;79.64;92883.75;5023539;28;20036;-76
2023/01/10 09:33:12;;;;;;;46.00;22.65;;;;;;;5.60;79.45;92885.81;5023345;28;20062;-75
2023/01/10 09:35:39;;;;;;;69.63;29.73;;;;;;;5.63;79.15;92880.66;5023048;28;20037;-77
2023/01/10 09:38:06;;;;;;;58.72;26.45;;;;;;;5.65;78.91;92872.44;5023563;28;20029;-76
2023/01/10 09:40:50;;;;;;;47.92;25.92;;;;;;;5.54;79.08;92874.59;5023413;28;20029;-75
2023/01/10 09:43:29;;;;;;;43.50;22.40;;;;;;;5.39;79.26;92865.19;5023190;28;20323;-75
2023/01/10 09:46:08;;;;;;;53.08;23.73;;;;;;;5.19;78.93;92868.34;5023552;28;20331;-74
2023/01/10 09:48:47;;;;;;;43.30;22.00;;;;;;;4.96;79.70;92870.25;5023178;28;20209;-74
2023/01/10 09:51:32;;;;;;;48.45;21.77;;;;;;;4.88;81.12;92863.06;5023238;28;20037;-73
2023/01/10 09:54:04;;;;;;;49.70;23.70;;;;;;;4.90;81.67;92861.66;5023169;28;20251;-73
2023/01/10 09:56:32;;;;;;;54.33;26.02;;;;;;;4.89;81.96;92860.13;5022902;28;20068;-73
2023/01/10 09:58:59;;;;;;;46.78;23.35;;;;;;;4.95;81.80;92851.00;5023203;28;20049;-74
2023/01/10 10:01:31;;;;;;;49.95;22.55;;;;;;;4.89;82.07;92849.56;5023122;28;20025;-73
2023/01/10 10:04:24;;;;;;;54.72;24.92;;;;;;;4.91;82.06;92846.63;5023259;28;20328;-78
2023/01/10 10:06:51;;;;;;;146.90;54.50;;;;;;;4.85;81.75;92847.81;5008109;28;20052;-76
2023/01/10 10:09:23;;;;;;;58.30;26.95;;;;;;;4.80;81.46;92846.06;5021763;28;20028;-75
2023/01/10 10:12:16;;;;;;;58.58;27.27;;;;;;;4.80;81.51;92848.72;5022804;28;20093;-77
2023/01/10 10:15:31;;;;;;;57.75;26.80;;;;;;;4.83;81.15;92842.84;5021957;28;20032;-74
2023/01/10 10:18:09;;;;;;;114.80;56.33;;;;;;;4.83;80.65;92848.13;4962751;28;20341;-76
2023/01/10 10:20:46;;;;;;;72.47;33.78;;;;;;;4.73;80.79;92846.50;5011855;28;20045;-76
2023/01/10 10:23:17;;;;;;;71.00;30.60;;;;;;;4.71;81.71;92839.97;5022915;28;20205;-81
2023/01/10 10:25:48;;;;;;;59.00;24.02;;;;;;;4.73;81.94;92840.44;5022598;28;20026;-81
2023/01/10 10:28:37;;;;;;;48.07;22.77;;;;;;;4.77;82.21;92838.75;5022653;28;20072;-81
2023/01/10 10:31:13;;;;;;;38.83;20.95;;;;;;;4.79;81.78;92831.31;5022742;28;20220;-80
2023/01/10 10:33:45;;;;;;;44.63;21.95;;;;;;;4.82;82.02;92825.44;5022753;28;20053;-80
2023/01/10 10:36:18;;;;;;;49.75;23.52;;;;;;;4.83;81.91;92824.34;5022478;28;20045;-77
2023/01/10 10:38:46;;;;;;;42.65;21.63;;;;;;;4.80;82.12;92819.66;5022713;28;20467;-77
2023/01/10 10:41:25;;;;;;;47.33;22.90;;;;;;;4.78;82.42;92811.28;5022822;28;20029;-79
2023/01/10 10:43:53;;;;;;;43.70;23.58;;;;;;;4.79;82.66;92818.13;5023078;28;20033;-80
2023/01/10 10:46:19;;;;;;;50.38;22.75;;;;;;;4.78;82.82;92806.00;5022922;28;20026;-80
2023/01/10 10:48:49;;;;;;;38.17;21.88;;;;;;;4.82;82.88;92809.59;5022641;28;20136;-79
2023/01/10 10:51:33;;;;;;;44.60;23.50;;;;;;;4.79;82.80;92799.63;5022882;28;20034;-84
2023/01/10 10:54:00;;;;;;;50.75;23.55;;;;;;;4.76;83.11;92801.03;5021655;28;20025;-89
2023/01/10 10:56:26;;;;;;;58.63;24.48;;;;;;;4.76;83.29;92810.78;5022730;28;20036;-83
2023/01/10 10:58:55;;;;;;;57.05;25.75;;;;;;;4.79;83.57;92807.56;5022541;28;20029;-83
2023/01/10 11:01:21;;;;;;;54.17;25.77;;;;;;;4.84;83.50;92817.97;5022558;28;20346;-84
2023/01/10 11:04:09;;;;;;;55.42;25.38;;;;;;;4.88;83.52;92800.44;5023580;28;20056;-87
2023/01/10 11:06:37;;;;;;;56.50;26.33;;;;;;;4.92;83.40;92804.03;5022825;28;20295;-86
2023/01/10 11:09:05;;;;;;;51.40;25.00;;;;;;;4.96;83.48;92797.06;5022510;28;20014;-86
2023/01/10 11:11:38;;;;;;;48.60;24.42;;;;;;;4.93;83.56;92789.78;5022533;28;20033;-85
2023/01/10 11:14:07;;;;;;;58.28;25.17;;;;;;;4.93;83.52;92789.78;5022374;28;20029;-85
2023/01/10 11:16:36;;;;;;;55.53;26.63;;;;;;;4.94;83.89;92772.84;5022486;28;20220;-85
2023/01/10 11:19:21;;;;;;;63.85;28.63;;;;;;;4.95;83.77;92774.41;5021105;28;20026;-86
2023/01/10 11:21:49;;;;;;;62.53;28.30;;;;;;;4.95;84.05;92781.56;5022040;28;20053;-86
2023/01/10 11:24:19;;;;;;;54.70;24.85;;;;;;;4.94;83.88;92772.84;5022039;28;20216;-86
2023/01/10 11:26:45;;;;;;;51.53;24.17;;;;;;;4.87;83.62;92782.28;5024508;28;20213;-86
2023/01/10 11:29:19;;;;;;;58.60;24.90;;;;;;;4.78;84.11;92782.22;5025104;28;20048;-87
2023/01/10 11:31:46;;;;;;;54.70;24.88;;;;;;;4.73;84.95;92771.81;5024860;28;20084;-85
2023/01/10 11:34:24;;;;;;;55.55;26.85;;;;;;;4.69;85.48;92773.50;5025909;28;20022;-87
2023/01/10 11:37:17;;;;;;;63.65;27.60;;;;;;;4.66;85.96;92776.72;5024892;28;20076;-83
2023/01/10 11:39:42;;;;;;;;;;;;;;;4.57;85.80;92782.75;5026375;28;20081;-82
2023/01/10 11:42:23;;;;;;;57.15;25.45;;;;;;;4.52;86.25;92782.88;5025917;28;20203;-81